Goddard, Kansas
Current Conditions -  °F | °C
As of 3:53 AM on Thursday 29 Jan 2015 (Local Time) from KICT Reporting Station
Scattered Clouds Scattered Clouds  
Wind Chill: 50°   Ceiling: Unl
Heat Index: 50°   Visibility: 10mi
Dew Point: 32°   Wind: 21mph
Humidity: 50%   Direction: 350°N
Pressure: 30.14"   Gusts: 32mph
Location:  37.66°N, 97.58°W
Report Text: KICT 290953Z 35018G28KT 10SM FEW040 SCT250 10/00 A3014 RMK AO2 PK WND 35035/0916 SLP201 T01000000
Loading
Personal Weather Stations






























Interactive Weather Map New forecast layout! Learn more

10-Day Weather Forecast

Advertisements
Track Severe Weather on mobile